Time;durP1;ratioP1;P1;durP2;ratioP2;P2;SDS_P1;SDS_P2;PMS_P1;PMS_P2;Temp;Humidity;BMP_temperature;BMP_pressure;BME280_temperature;BME280_humidity;BME280_pressure;Samples;Min_cycle;Max_cycle;Signal;HPM_P1;HPM_P2
2021/05/10 00:00:48;;;;;;;8.00;3.15;;;;;;;14.81;44.77;98199.38;5083422;28;20038;-65
2021/05/10 00:03:13;;;;;;;5.40;2.80;;;;;;;14.75;44.97;98199.66;5081366;28;20016;-65
2021/05/10 00:05:39;;;;;;;8.15;4.00;;;;;;;14.77;44.84;98197.00;5084359;28;20024;-64
2021/05/10 00:08:08;;;;;;;5.47;2.85;;;;;;;14.85;44.60;98177.69;5081679;28;20067;-66
2021/05/10 00:10:34;;;;;;;9.10;4.00;;;;;;;14.79;44.94;98184.88;5079145;28;20028;-65
2021/05/10 00:13:00;;;;;;;8.73;4.18;;;;;;;14.72;45.16;98181.75;5080164;28;20029;-64
2021/05/10 00:15:26;;;;;;;10.02;3.80;;;;;;;14.73;45.14;98185.13;5083746;28;20094;-64
2021/05/10 00:17:53;;;;;;;9.73;3.50;;;;;;;14.76;45.02;98174.69;5082982;28;20296;-64
2021/05/10 00:20:19;;;;;;;7.55;3.17;;;;;;;14.79;45.20;98177.13;5086123;28;20028;-63
2021/05/10 00:22:44;;;;;;;9.63;3.75;;;;;;;14.78;44.30;98171.13;5082059;28;20077;-64
2021/05/10 00:25:11;;;;;;;5.55;3.08;;;;;;;14.79;45.71;98185.72;5083634;28;20024;-64
2021/05/10 00:27:36;;;;;;;9.70;3.45;;;;;;;14.73;45.28;98180.81;5083211;28;20077;-64
2021/05/10 00:30:03;;;;;;;4.72;3.17;;;;;;;14.74;45.95;98185.06;5083456;28;20024;-64
2021/05/10 00:32:29;;;;;;;4.95;2.63;;;;;;;14.64;45.67;98183.78;5086753;28;20032;-64
2021/05/10 00:34:54;;;;;;;4.88;3.05;;;;;;;14.57;46.63;98187.53;5085789;28;20043;-64
2021/05/10 00:37:20;;;;;;;9.02;3.22;;;;;;;14.59;46.50;98184.00;5081738;28;20314;-65
2021/05/10 00:39:45;;;;;;;8.13;3.97;;;;;;;14.61;47.23;98179.59;5081715;28;20028;-64
2021/05/10 00:42:11;;;;;;;4.35;2.90;;;;;;;14.63;46.70;98184.72;5080993;28;20020;-66
2021/05/10 00:44:36;;;;;;;12.20;4.50;;;;;;;14.62;47.37;98190.75;5082299;28;20127;-64
2021/05/10 00:47:02;;;;;;;11.77;5.68;;;;;;;14.56;47.85;98176.38;5080250;28;20436;-64
2021/05/10 00:49:27;;;;;;;6.93;3.88;;;;;;;14.70;47.10;98177.53;5084318;28;20032;-64
2021/05/10 00:51:52;;;;;;;7.13;3.58;;;;;;;14.75;47.68;98180.75;5083452;28;20032;-66
2021/05/10 00:54:18;;;;;;;8.02;4.05;;;;;;;14.76;47.12;98172.97;5080913;28;20377;-64
2021/05/10 00:56:43;;;;;;;6.90;3.42;;;;;;;14.73;47.31;98177.38;5080379;28;20024;-64
2021/05/10 00:59:09;;;;;;;4.90;3.10;;;;;;;14.69;47.13;98181.84;5081313;28;20058;-64
2021/05/10 01:01:35;;;;;;;8.75;4.80;;;;;;;14.66;47.58;98184.56;5084370;28;20021;-64
2021/05/10 01:04:00;;;;;;;4.93;2.75;;;;;;;14.57;46.81;98178.06;5086714;28;20033;-64
2021/05/10 01:06:26;;;;;;;7.53;3.38;;;;;;;14.50;46.98;98184.38;5083586;28;20073;-65
2021/05/10 01:08:51;;;;;;;7.80;3.95;;;;;;;14.44;47.41;98187.22;5081685;28;20058;-66
2021/05/10 01:11:17;;;;;;;5.55;3.72;;;;;;;14.47;47.31;98187.06;5084023;28;20036;-64
2021/05/10 01:13:44;;;;;;;4.65;3.00;;;;;;;14.42;47.48;98183.03;5080997;28;20045;-64
2021/05/10 01:16:10;;;;;;;5.60;3.15;;;;;;;14.35;47.73;98173.81;5083358;28;20046;-64
2021/05/10 01:18:36;;;;;;;5.82;3.30;;;;;;;14.28;47.85;98174.97;5081616;28;20118;-64
2021/05/10 01:21:03;;;;;;;5.75;3.13;;;;;;;14.23;48.00;98172.59;5084794;28;20023;-65
2021/05/10 01:23:29;;;;;;;8.48;3.90;;;;;;;14.14;48.83;98183.28;5089433;28;20040;-65
2021/05/10 01:25:55;;;;;;;8.50;3.70;;;;;;;14.05;49.03;98175.91;5080043;28;20113;-66
2021/05/10 01:28:21;;;;;;;7.57;3.80;;;;;;;13.96;49.53;98186.59;5080108;28;20634;-65
2021/05/10 01:30:50;;;;;;;9.10;3.92;;;;;;;13.93;49.68;98178.97;5082414;28;20033;-65
2021/05/10 01:33:19;;;;;;;5.82;3.72;;;;;;;13.90;50.17;98176.53;5082381;28;20024;-65
2021/05/10 01:35:48;;;;;;;9.07;4.07;;;;;;;13.84;50.57;98181.91;5082095;28;20032;-65
2021/05/10 01:38:14;;;;;;;6.53;3.30;;;;;;;13.81;50.89;98179.47;5083246;28;20329;-66
2021/05/10 01:40:40;;;;;;;7.60;4.05;;;;;;;13.87;50.78;98168.94;5080855;28;20028;-65
2021/05/10 01:43:06;;;;;;;12.52;5.70;;;;;;;13.92;50.60;98167.81;5080678;28;20102;-65
2021/05/10 01:45:35;;;;;;;7.97;3.90;;;;;;;13.90;50.73;98153.34;5082047;28;20067;-65
2021/05/10 01:48:06;;;;;;;8.27;3.85;;;;;;;13.93;50.35;98150.63;5080903;28;20024;-65
2021/05/10 01:50:32;;;;;;;5.93;3.22;;;;;;;13.97;50.22;98134.97;5081683;28;20059;-65
2021/05/10 01:52:57;;;;;;;8.65;4.05;;;;;;;13.92;49.78;98136.91;5079118;28;20078;-65
2021/05/10 01:55:24;;;;;;;4.97;3.35;;;;;;;13.90;49.62;98138.72;5080719;28;20037;-65
2021/05/10 01:57:52;;;;;;;7.07;3.75;;;;;;;13.86;49.88;98136.31;5083002;28;20066;-65
2021/05/10 02:00:21;;;;;;;8.80;3.13;;;;;;;13.95;49.41;98133.38;5081820;28;20029;-65
2021/05/10 02:02:47;;;;;;;8.18;3.65;;;;;;;13.81;49.45;98133.09;5080291;28;20028;-66
2021/05/10 02:05:17;;;;;;;5.53;3.33;;;;;;;13.83;49.16;98133.88;5081169;28;20021;-65
2021/05/10 02:07:51;;;;;;;7.68;3.45;;;;;;;13.68;49.33;98130.16;5084331;28;20399;-66
2021/05/10 02:10:21;;;;;;;8.32;4.07;;;;;;;13.47;50.03;98113.81;5083835;28;20419;-65
2021/05/10 02:12:53;;;;;;;8.45;4.03;;;;;;;13.43;49.81;98111.41;5081366;28;20033;-65
2021/05/10 02:15:19;;;;;;;5.65;3.05;;;;;;;13.24;50.17;98117.25;5079771;28;20031;-66
2021/05/10 02:17:44;;;;;;;8.40;4.00;;;;;;;13.19;50.45;98120.91;5079322;28;20391;-65
2021/05/10 02:20:10;;;;;;;10.43;3.63;;;;;;;13.05;51.02;98116.25;5081305;28;20111;-65
2021/05/10 02:22:36;;;;;;;6.53;3.50;;;;;;;12.91;51.29;98115.06;5080272;28;20028;-65
2021/05/10 02:25:04;;;;;;;5.72;3.13;;;;;;;12.99;51.35;98123.34;5078115;28;20161;-66
2021/05/10 02:27:29;;;;;;;10.13;4.95;;;;;;;12.93;51.27;98131.28;5081271;28;20032;-65
2021/05/10 02:29:55;;;;;;;6.55;3.40;;;;;;;12.82;51.20;98135.09;5077335;28;20039;-66
2021/05/10 02:32:20;;;;;;;6.88;3.58;;;;;;;12.79;51.47;98137.78;5088033;28;20024;-65
2021/05/10 02:34:46;;;;;;;13.55;5.10;;;;;;;12.71;51.89;98131.22;5078226;28;20396;-65
2021/05/10 02:37:12;;;;;;;8.68;4.25;;;;;;;12.65;52.15;98126.28;5084858;28;20036;-65
2021/05/10 02:39:39;;;;;;;9.20;4.32;;;;;;;12.63;52.73;98128.94;5080693;28;20032;-66
2021/05/10 02:42:05;;;;;;;7.38;3.55;;;;;;;12.60;52.76;98125.63;5087713;28;20039;-65
2021/05/10 02:44:31;;;;;;;7.47;3.83;;;;;;;12.55;53.23;98120.66;5085202;28;20554;-65
2021/05/10 02:46:56;;;;;;;9.77;4.20;;;;;;;12.51;53.35;98124.22;5082385;28;20032;-65
2021/05/10 02:49:21;;;;;;;8.13;3.78;;;;;;;12.48;53.05;98134.59;5082473;28;20146;-65
2021/05/10 02:51:47;;;;;;;6.75;2.95;;;;;;;12.51;53.47;98128.53;5084199;28;20104;-65
2021/05/10 02:54:12;;;;;;;8.82;3.75;;;;;;;12.45;53.39;98128.72;5083632;28;20742;-68
2021/05/10 02:56:38;;;;;;;10.23;3.80;;;;;;;12.48;53.68;98134.59;5086827;28;20105;-65
2021/05/10 02:59:03;;;;;;;6.63;3.15;;;;;;;12.50;53.45;98140.53;5086041;28;20088;-66
2021/05/10 03:01:28;;;;;;;6.03;3.20;;;;;;;12.45;53.63;98134.69;5095245;28;20016;-65
2021/05/10 03:03:54;;;;;;;7.13;3.70;;;;;;;12.36;54.31;98125.56;5084961;28;20067;-65
2021/05/10 03:06:19;;;;;;;5.67;2.67;;;;;;;12.32;54.31;98123.16;5083167;28;20033;-65
2021/05/10 03:08:45;;;;;;;8.90;3.53;;;;;;;12.26;55.17;98125.94;5084019;28;20082;-65
2021/05/10 03:11:10;;;;;;;6.78;3.20;;;;;;;12.25;54.81;98125.09;5084000;28;20024;-65
2021/05/10 03:13:35;;;;;;;9.07;3.83;;;;;;;12.19;55.48;98127.88;5082418;28;20028;-65
2021/05/10 03:16:01;;;;;;;7.47;3.75;;;;;;;12.13;55.30;98130.66;5084129;28;20352;-65
2021/05/10 03:18:26;;;;;;;10.13;4.37;;;;;;;12.10;55.25;98127.31;5082028;28;20417;-65
2021/05/10 03:20:52;;;;;;;5.43;2.75;;;;;;;12.05;56.00;98132.63;5086444;28;20143;-65
2021/05/10 03:23:18;;;;;;;10.23;3.80;;;;;;;12.02;56.09;98126.75;5083808;28;20024;-65
2021/05/10 03:25:43;;;;;;;12.40;5.03;;;;;;;12.08;56.02;98139.41;5083317;28;20024;-65
2021/05/10 03:28:08;;;;;;;8.50;3.97;;;;;;;12.02;55.98;98130.16;5086673;28;20286;-65
2021/05/10 03:30:34;;;;;;;11.15;3.95;;;;;;;11.99;55.78;98132.00;5082129;28;20262;-65
2021/05/10 03:32:59;;;;;;;6.13;2.63;;;;;;;12.01;55.89;98136.19;5092592;28;20039;-65
2021/05/10 03:35:24;;;;;;;8.05;3.97;;;;;;;11.98;56.50;98135.44;5083538;28;20081;-64
2021/05/10 03:37:50;;;;;;;5.00;2.95;;;;;;;11.95;56.22;98125.28;5084741;28;20368;-65
2021/05/10 03:40:16;;;;;;;10.48;4.07;;;;;;;11.99;56.61;98124.28;5081196;28;20323;-65
2021/05/10 03:42:42;;;;;;;6.93;3.47;;;;;;;11.99;57.60;98124.28;5082985;28;20047;-64
2021/05/10 03:45:10;;;;;;;8.98;3.95;;;;;;;12.02;57.48;98126.75;5083154;28;20024;-65
2021/05/10 03:47:42;;;;;;;9.43;3.28;;;;;;;12.02;57.88;98130.16;5084196;28;20040;-65
2021/05/10 03:50:11;;;;;;;7.55;3.53;;;;;;;12.08;57.44;98134.25;5082146;28;20783;-64
2021/05/10 03:52:37;;;;;;;5.05;2.83;;;;;;;12.17;57.12;98136.53;5081909;28;20038;-65
2021/05/10 03:55:04;;;;;;;7.18;3.20;;;;;;;12.24;56.79;98136.28;5083551;28;20016;-65
2021/05/10 03:57:29;;;;;;;8.65;3.45;;;;;;;12.41;56.75;98134.84;5083896;28;20054;-65
2021/05/10 03:59:55;;;;;;;8.57;3.72;;;;;;;12.58;56.78;98135.97;5082633;28;20020;-65
2021/05/10 04:02:21;;;;;;;7.93;3.47;;;;;;;12.80;55.24;98131.75;5084441;28;20028;-65
2021/05/10 04:15:35;;;;;;;8.07;3.80;;;;;;;14.05;51.90;98130.34;5081991;28;20340;-65
2021/05/10 04:18:00;;;;;;;7.72;3.85;;;;;;;14.15;51.15;98129.06;5081475;28;20036;-64
2021/05/10 04:20:25;;;;;;;6.25;3.15;;;;;;;14.25;51.08;98126.97;5082053;28;20027;-64
2021/05/10 04:22:51;;;;;;;8.18;4.18;;;;;;;14.41;50.27;98119.44;5079401;28;20031;-64
2021/05/10 04:25:16;;;;;;;7.78;3.88;;;;;;;14.58;50.04;98125.56;5080965;28;20055;-65
2021/05/10 04:27:42;;;;;;;6.25;3.45;;;;;;;14.70;50.49;98126.78;5079454;28;20024;-65
2021/05/10 04:30:08;;;;;;;8.15;4.20;;;;;;;14.80;50.18;98127.22;5082583;28;20397;-64
2021/05/10 04:32:33;;;;;;;10.85;3.50;;;;;;;14.73;50.78;98115.47;5082315;28;20095;-65
2021/05/10 04:34:59;;;;;;;7.20;3.92;;;;;;;14.69;51.23;98134.56;5082080;28;20032;-65
2021/05/10 04:37:24;;;;;;;6.38;3.47;;;;;;;14.63;51.43;98128.78;5083446;28;20377;-64
2021/05/10 04:39:50;;;;;;;7.32;3.70;;;;;;;14.47;51.67;98138.06;5082470;28;20021;-65
2021/05/10 04:42:16;;;;;;;9.55;4.47;;;;;;;14.38;52.35;98140.22;5084835;28;20024;-65
2021/05/10 04:44:41;;;;;;;10.75;4.28;;;;;;;14.24;53.02;98138.19;5084924;28;20047;-64
2021/05/10 04:47:07;;;;;;;10.23;4.20;;;;;;;14.14;53.50;98142.88;5082686;28;20023;-64
2021/05/10 04:49:32;;;;;;;7.60;3.60;;;;;;;14.18;52.95;98135.84;5081776;28;20027;-65
2021/05/10 04:51:58;;;;;;;9.15;4.13;;;;;;;14.20;52.79;98136.63;5079900;28;20025;-64
2021/05/10 04:54:23;;;;;;;8.32;3.88;;;;;;;14.07;53.47;98153.50;5086167;28;20039;-64
2021/05/10 04:56:49;;;;;;;12.70;5.05;;;;;;;14.07;53.35;98158.66;5084218;28;20285;-64
2021/05/10 04:59:14;;;;;;;7.25;3.25;;;;;;;14.05;53.57;98134.66;5080225;28;20028;-64
2021/05/10 05:01:39;;;;;;;9.30;4.05;;;;;;;14.07;53.17;98145.75;5081025;28;20278;-65
2021/05/10 05:04:05;;;;;;;6.93;3.78;;;;;;;14.07;53.61;98135.44;5081638;28;20028;-65
2021/05/10 05:06:31;;;;;;;10.23;4.43;;;;;;;14.08;53.09;98142.28;5080273;28;20115;-64
2021/05/10 05:08:56;;;;;;;8.57;3.22;;;;;;;14.07;53.45;98153.50;5078771;28;20062;-64
2021/05/10 05:11:22;;;;;;;11.20;4.40;;;;;;;14.02;53.31;98152.84;5080286;28;20059;-65
2021/05/10 05:13:47;;;;;;;8.77;4.18;;;;;;;14.06;53.05;98147.50;5079718;28;20032;-64
2021/05/10 05:16:13;;;;;;;7.30;3.80;;;;;;;14.08;53.01;98142.28;5083800;28;20032;-65
2021/05/10 05:18:38;;;;;;;10.90;4.70;;;;;;;14.00;53.79;98139.19;5081112;28;20155;-64
2021/05/10 05:21:04;;;;;;;6.13;3.10;;;;;;;14.01;53.82;98140.84;5079849;28;20429;-64
2021/05/10 05:23:30;;;;;;;8.13;3.72;;;;;;;13.97;53.84;98145.28;5082642;28;20070;-65
2021/05/10 05:25:57;;;;;;;11.73;4.82;;;;;;;13.98;54.03;98143.56;5083691;28;21995;-65
2021/05/10 05:28:23;;;;;;;14.82;4.53;;;;;;;13.95;54.13;98139.38;5082297;28;20054;-65
2021/05/10 05:30:48;;;;;;;12.02;4.53;;;;;;;13.96;54.92;98147.94;5081821;28;20032;-65
2021/05/10 05:33:14;;;;;;;10.65;4.20;;;;;;;14.00;55.30;98157.22;5079964;28;20032;-65
2021/05/10 05:35:39;;;;;;;12.27;4.85;;;;;;;14.01;55.45;98166.63;5080786;28;20035;-65
2021/05/10 05:38:08;;;;;;;11.02;4.03;;;;;;;14.00;55.49;98173.50;5081004;28;20059;-65
2021/05/10 05:40:33;;;;;;;10.82;4.72;;;;;;;14.00;56.02;98170.13;5080183;28;20029;-65
2021/05/10 05:42:59;;;;;;;9.52;4.38;;;;;;;14.00;55.99;98163.19;5082383;28;20102;-66
2021/05/10 05:45:24;;;;;;;12.55;4.22;;;;;;;14.04;56.04;98161.34;5083164;28;20024;-66
2021/05/10 05:47:50;;;;;;;10.60;3.83;;;;;;;14.09;55.85;98167.13;5082007;28;20036;-65
2021/05/10 05:50:15;;;;;;;7.20;4.07;;;;;;;14.10;56.14;98168.81;5079813;28;20024;-65
2021/05/10 05:52:41;;;;;;;11.40;3.95;;;;;;;14.12;56.00;98167.88;5081273;28;20081;-65
2021/05/10 05:55:08;;;;;;;9.20;5.20;;;;;;;14.14;56.00;98162.66;5081964;28;20036;-65
2021/05/10 05:57:34;;;;;;;14.10;5.03;;;;;;;14.13;55.87;98169.53;5078044;28;20035;-64
2021/05/10 06:00:01;;;;;;;7.93;4.20;;;;;;;14.24;54.97;98163.13;5077433;28;20024;-65
2021/05/10 06:02:27;;;;;;;9.63;5.05;;;;;;;14.26;55.42;98163.91;5080887;28;20021;-65
2021/05/10 06:04:52;;;;;;;11.35;4.88;;;;;;;14.33;55.27;98155.84;5095042;28;20027;-65
2021/05/10 06:07:18;;;;;;;9.85;4.32;;;;;;;14.42;55.30;98165.81;5084588;28;20047;-65
2021/05/10 06:09:43;;;;;;;8.65;4.05;;;;;;;14.63;54.88;98182.97;5081442;28;20394;-64
2021/05/10 06:12:09;;;;;;;12.80;5.07;;;;;;;14.85;54.12;98169.97;5083116;28;20028;-65
2021/05/10 06:14:34;;;;;;;8.75;4.18;;;;;;;15.02;53.75;98174.41;5085437;28;20032;-65
2021/05/10 06:17:00;;;;;;;16.30;5.97;;;;;;;15.22;52.19;98176.94;5085113;28;20306;-65
2021/05/10 06:19:26;;;;;;;8.95;4.65;;;;;;;15.52;53.00;98175.59;5087408;28;20055;-65
2021/05/10 06:21:52;;;;;;;8.57;4.47;;;;;;;15.76;52.36;98167.56;5089767;28;20073;-65
2021/05/10 06:24:18;;;;;;;6.22;3.63;;;;;;;15.97;51.58;98175.16;5085637;28;20043;-65
2021/05/10 06:26:45;;;;;;;10.35;4.90;;;;;;;16.12;50.63;98171.00;5082426;28;20020;-65
2021/05/10 06:29:10;;;;;;;5.68;3.50;;;;;;;16.32;50.81;98173.44;5086868;28;20377;-65
2021/05/10 06:31:36;;;;;;;11.65;4.57;;;;;;;16.36;50.40;98174.97;5082562;28;20027;-68
2021/05/10 06:34:02;;;;;;;9.45;3.75;;;;;;;16.45;50.01;98182.28;5081640;28;20400;-66
2021/05/10 06:36:28;;;;;;;12.38;4.03;;;;;;;16.49;49.29;98184.72;5083390;28;20369;-67
2021/05/10 06:38:53;;;;;;;8.25;3.78;;;;;;;16.55;49.01;98185.22;5084310;28;20047;-66
2021/05/10 06:41:19;;;;;;;7.18;3.75;;;;;;;16.68;49.02;98185.47;5085662;28;20032;-66
2021/05/10 06:43:44;;;;;;;6.32;3.63;;;;;;;16.73;48.61;98183.50;5082736;28;20111;-66
2021/05/10 06:46:09;;;;;;;9.15;4.75;;;;;;;16.97;49.10;98187.44;5083944;28;20361;-65
2021/05/10 06:48:35;;;;;;;9.75;4.22;;;;;;;17.26;48.63;98196.28;5082652;28;20020;-65
2021/05/10 06:51:01;;;;;;;13.25;4.97;;;;;;;17.38;47.98;98184.41;5083942;28;20074;-65
2021/05/10 06:53:26;;;;;;;11.88;5.18;;;;;;;17.49;47.87;98185.50;5083059;28;20078;-66
2021/05/10 06:55:53;;;;;;;10.82;4.72;;;;;;;17.72;46.77;98192.06;5081802;28;20034;-65
2021/05/10 06:58:19;;;;;;;12.05;5.40;;;;;;;17.92;46.45;98184.03;5084148;28;20039;-66
2021/05/10 07:00:46;;;;;;;10.40;4.22;;;;;;;17.97;46.38;98191.56;5083428;28;20029;-66
2021/05/10 07:03:11;;;;;;;9.38;4.30;;;;;;;18.02;46.36;98190.38;5083149;28;20674;-66
2021/05/10 07:05:37;;;;;;;5.97;3.28;;;;;;;18.21;45.79;98195.34;5082816;28;20020;-66
2021/05/10 07:08:10;;;;;;;11.52;4.95;;;;;;;18.42;46.01;98185.50;5085182;28;20047;-67
2021/05/10 07:10:36;;;;;;;9.15;3.40;;;;;;;18.62;45.50;98180.88;5084801;28;20037;-66
2021/05/10 07:13:01;;;;;;;7.75;3.55;;;;;;;18.83;44.95;98176.19;5083431;28;20054;-66
2021/05/10 07:15:27;;;;;;;7.70;4.07;;;;;;;18.74;44.68;98187.09;5083669;28;20309;-65
2021/05/10 07:18:10;;;;;;;5.07;3.30;;;;;;;18.93;44.51;98179.03;5084153;28;20044;-66
2021/05/10 07:20:37;;;;;;;8.85;4.00;;;;;;;18.93;44.57;98174.69;5085301;28;20032;-66
2021/05/10 07:23:05;;;;;;;10.73;4.28;;;;;;;18.85;44.67;98170.88;5087417;28;20115;-67
2021/05/10 07:25:31;;;;;;;7.00;3.22;;;;;;;18.84;44.53;98171.81;5081784;28;20029;-67
2021/05/10 07:27:57;;;;;;;4.68;3.03;;;;;;;19.15;44.44;98174.22;5082580;28;20277;-67
2021/05/10 07:30:22;;;;;;;10.35;6.20;;;;;;;19.36;44.12;98172.06;5082115;28;20016;-67
2021/05/10 07:32:48;;;;;;;6.38;3.75;;;;;;;19.26;43.92;98183.97;5085691;28;20040;-67
2021/05/10 07:35:13;;;;;;;11.10;3.83;;;;;;;19.52;43.66;98194.47;5087546;28;20024;-67
2021/05/10 07:37:39;;;;;;;8.32;4.03;;;;;;;19.63;44.21;98191.22;5086051;28;20399;-66
2021/05/10 07:40:05;;;;;;;8.80;3.88;;;;;;;19.71;43.98;98199.38;5084997;28;20332;-67
2021/05/10 07:42:31;;;;;;;8.38;3.45;;;;;;;19.78;44.30;98195.44;5081330;28;20017;-67
2021/05/10 07:44:58;;;;;;;8.60;3.92;;;;;;;19.88;43.94;98198.28;5085245;28;20025;-67
2021/05/10 07:47:23;;;;;;;6.78;3.88;;;;;;;19.80;43.78;98198.78;5084447;28;20313;-66
2021/05/10 07:49:48;;;;;;;5.70;3.78;;;;;;;19.89;43.48;98202.56;5082668;28;20028;-67
2021/05/10 07:52:14;;;;;;;7.55;3.65;;;;;;;20.00;43.36;98195.75;5094145;28;20381;-66
2021/05/10 07:54:39;;;;;;;7.63;3.67;;;;;;;20.00;42.99;98189.72;5085679;28;20024;-67
2021/05/10 07:57:07;;;;;;;9.18;4.82;;;;;;;20.01;43.71;98184.41;5085312;28;20043;-67
2021/05/10 07:59:32;;;;;;;6.32;3.85;;;;;;;20.27;42.72;98187.09;5081410;28;20020;-67
2021/05/10 08:01:59;;;;;;;9.25;4.93;;;;;;;20.39;42.37;98183.72;5083059;28;20050;-65
2021/05/10 08:04:24;;;;;;;8.52;4.97;;;;;;;20.51;42.45;98193.31;5086105;28;20032;-67
2021/05/10 08:06:50;;;;;;;8.82;4.47;;;;;;;20.24;42.81;98179.50;5084715;28;20090;-66
2021/05/10 08:09:15;;;;;;;8.25;4.70;;;;;;;20.54;42.63;98185.28;5082959;28;20367;-66
2021/05/10 08:11:41;;;;;;;7.10;4.03;;;;;;;20.51;42.32;98185.50;5081795;28;20131;-65
2021/05/10 08:14:06;;;;;;;5.53;4.20;;;;;;;20.80;41.92;98187.00;5084319;28;20020;-66
2021/05/10 08:16:31;;;;;;;5.60;3.47;;;;;;;21.04;41.41;98192.34;5083621;28;20028;-65
2021/05/10 08:18:57;;;;;;;7.28;4.20;;;;;;;21.14;41.53;98177.75;5081020;28;20032;-66
2021/05/10 08:21:22;;;;;;;11.30;4.35;;;;;;;21.21;41.19;98183.41;5086451;28;20057;-66
2021/05/10 08:23:48;;;;;;;7.40;4.63;;;;;;;21.18;41.17;98173.16;5080450;28;20037;-65
2021/05/10 08:26:13;;;;;;;6.35;2.95;;;;;;;21.12;41.65;98174.44;5081821;28;20037;-65
2021/05/10 08:28:38;;;;;;;6.53;4.07;;;;;;;21.02;41.60;98178.56;5081267;28;20036;-65
2021/05/10 08:31:04;;;;;;;7.50;4.13;;;;;;;21.30;41.47;98177.53;5083374;28;20123;-64
2021/05/10 08:33:32;;;;;;;11.15;5.90;;;;;;;21.30;41.50;98180.97;5081690;28;20436;-64
2021/05/10 08:35:58;;;;;;;9.90;3.72;;;;;;;21.32;41.16;98178.25;5080600;28;20074;-64
2021/05/10 08:38:23;;;;;;;13.25;6.53;;;;;;;21.33;41.35;98178.16;5078726;28;20037;-66
2021/05/10 08:40:51;;;;;;;10.27;5.75;;;;;;;21.28;41.61;98184.63;5081460;28;20064;-67
2021/05/10 08:43:21;;;;;;;12.38;5.45;;;;;;;21.63;41.00;98179.56;5079787;28;20032;-65
2021/05/10 08:45:53;;;;;;;6.28;3.97;;;;;;;21.58;41.16;98184.25;5079328;28;20040;-65
2021/05/10 08:48:19;;;;;;;7.22;4.10;;;;;;;21.61;40.83;98177.03;5081446;28;20328;-66
2021/05/10 08:50:45;;;;;;;10.38;4.05;;;;;;;21.81;40.70;98179.06;5081465;28;20075;-70
2021/05/10 08:53:13;;;;;;;8.63;4.10;;;;;;;21.91;40.70;98167.97;5090300;28;20417;-67
2021/05/10 08:55:40;;;;;;;7.13;3.58;;;;;;;21.94;40.51;98171.22;5079759;28;20028;-67
2021/05/10 08:58:07;;;;;;;10.15;5.47;;;;;;;21.91;40.84;98160.97;5079859;28;20416;-67
2021/05/10 09:00:33;;;;;;;10.63;4.25;;;;;;;22.02;40.67;98161.06;5082911;28;20029;-67
2021/05/10 09:03:10;;;;;;;7.03;4.30;;;;;;;21.91;41.01;98162.72;5082291;28;20031;-68
2021/05/10 09:05:50;;;;;;;5.43;3.58;;;;;;;22.07;40.83;98161.53;5083064;28;20055;-67
2021/05/10 09:08:16;;;;;;;10.20;3.92;;;;;;;22.12;40.89;98169.03;5087326;28;20045;-67
2021/05/10 09:11:04;;;;;;;6.72;3.60;;;;;;;22.41;40.66;98166.88;5082445;28;20060;-67
2021/05/10 09:13:36;;;;;;;6.35;3.75;;;;;;;22.75;40.02;98172.13;5090535;28;20166;-67
2021/05/10 09:16:02;;;;;;;6.13;4.30;;;;;;;22.93;39.76;98162.06;5082839;28;20036;-67
2021/05/10 09:18:28;;;;;;;15.57;4.88;;;;;;;22.90;39.38;98151.84;5082560;28;20093;-67
2021/05/10 09:20:54;;;;;;;8.10;4.47;;;;;;;22.99;39.65;98156.38;5082629;28;20060;-66
2021/05/10 09:23:19;;;;;;;9.23;4.47;;;;;;;23.13;39.73;98155.28;5081546;28;20032;-66
2021/05/10 09:25:46;;;;;;;6.43;3.95;;;;;;;23.22;39.22;98159.81;5080685;28;20072;-66
2021/05/10 09:28:19;;;;;;;5.95;3.75;;;;;;;23.22;39.87;98159.81;5081433;28;20047;-67
2021/05/10 09:30:47;;;;;;;7.72;3.58;;;;;;;23.25;39.55;98156.13;5081440;28;20031;-67
2021/05/10 09:33:16;;;;;;;7.40;4.15;;;;;;;23.46;39.50;98150.09;5079078;28;20400;-67
2021/05/10 09:35:41;;;;;;;9.65;3.92;;;;;;;23.55;39.46;98159.00;5083722;28;20036;-67
2021/05/10 09:38:07;;;;;;;7.55;4.50;;;;;;;23.77;39.02;98165.94;5080900;28;20028;-67
2021/05/10 09:40:43;;;;;;;9.05;3.58;;;;;;;23.96;39.06;98163.53;5084071;28;20043;-67
2021/05/10 09:43:10;;;;;;;5.80;3.58;;;;;;;23.99;39.07;98165.88;5080630;28;20079;-67
2021/05/10 09:45:39;;;;;;;4.65;3.67;;;;;;;24.01;38.97;98175.31;5083395;28;20286;-68
2021/05/10 09:48:04;;;;;;;10.90;4.65;;;;;;;24.08;38.59;98166.00;5084513;28;20040;-67
2021/05/10 09:50:35;;;;;;;11.10;4.40;;;;;;;24.43;37.83;98160.50;5087286;28;20471;-67
2021/05/10 09:53:02;;;;;;;11.82;4.25;;;;;;;24.48;38.02;98155.72;5085000;28;20337;-67
2021/05/10 09:55:49;;;;;;;6.38;3.83;;;;;;;24.68;37.84;98147.97;5083836;28;20024;-66
2021/05/10 09:58:15;;;;;;;6.63;4.30;;;;;;;24.88;37.32;98153.22;5085285;28;20265;-66
2021/05/10 10:00:42;;;;;;;10.13;6.07;;;;;;;25.14;36.64;98147.53;5085685;28;20286;-66
2021/05/10 10:03:31;;;;;;;6.88;3.85;;;;;;;25.01;36.58;98151.22;5086621;28;20115;-67
2021/05/10 10:06:00;;;;;;;6.65;3.35;;;;;;;25.09;36.38;98140.06;5086337;28;20111;-67
2021/05/10 10:08:26;;;;;;;8.27;3.53;;;;;;;25.13;35.85;98157.22;5087420;28;20114;-67
2021/05/10 10:10:53;;;;;;;7.13;3.42;;;;;;;25.08;36.02;98153.34;5085120;28;20047;-67
2021/05/10 10:13:19;;;;;;;7.38;3.53;;;;;;;25.43;35.85;98153.72;5085339;28;20255;-67
2021/05/10 10:15:47;;;;;;;5.88;3.38;;;;;;;25.43;34.22;98161.59;5087560;28;20040;-67
2021/05/10 10:18:15;;;;;;;3.92;2.92;;;;;;;25.61;33.53;98161.84;5085489;28;20033;-67
2021/05/10 10:20:42;;;;;;;6.95;3.67;;;;;;;25.57;33.55;98156.03;5087779;28;20111;-67
2021/05/10 10:23:08;;;;;;;5.95;3.42;;;;;;;25.78;33.49;98150.69;5090624;28;20039;-67
2021/05/10 10:25:38;;;;;;;6.80;4.10;;;;;;;26.00;33.00;98142.56;5083417;28;20044;-67
2021/05/10 10:28:05;;;;;;;7.15;4.63;;;;;;;25.91;33.81;98149.47;5080920;28;20024;-67
2021/05/10 10:30:32;;;;;;;6.70;3.88;;;;;;;25.80;33.26;98151.38;5092872;28;20028;-67
2021/05/10 10:33:05;;;;;;;5.68;3.20;;;;;;;26.01;33.30;98146.84;5084994;28;20031;-67
2021/05/10 10:35:31;;;;;;;5.80;4.18;;;;;;;25.97;33.75;98153.31;5084641;28;20071;-68
2021/05/10 10:37:58;;;;;;;6.05;4.07;;;;;;;26.23;33.44;98145.75;5085725;28;20132;-67
2021/05/10 10:40:24;;;;;;;7.68;4.03;;;;;;;26.40;33.01;98142.41;5088103;28;20026;-67
2021/05/10 10:42:49;;;;;;;6.97;3.70;;;;;;;26.36;32.80;98141.03;5088136;28;20029;-67
2021/05/10 10:45:22;;;;;;;8.85;3.70;;;;;;;26.55;32.84;98137.56;5089810;28;20323;-67
2021/05/10 10:47:57;;;;;;;5.38;3.65;;;;;;;26.88;32.42;98142.38;5095190;28;20250;-68
2021/05/10 10:50:24;;;;;;;8.98;5.18;;;;;;;26.66;32.46;98132.13;5094580;28;20324;-69
2021/05/10 10:53:08;;;;;;;5.40;3.53;;;;;;;26.62;32.40;98136.03;5084457;28;20032;-68
2021/05/10 10:55:38;;;;;;;5.13;4.23;;;;;;;26.64;32.83;98137.56;5080515;28;20317;-68
2021/05/10 10:58:17;;;;;;;8.00;4.75;;;;;;;26.99;32.82;98136.91;5084289;28;20298;-68
2021/05/10 11:01:20;;;;;;;6.65;4.72;;;;;;;27.22;31.50;98132.13;5082800;28;20056;-68
2021/05/10 11:03:47;;;;;;;6.07;3.58;;;;;;;27.02;31.62;98123.50;5087406;28;20132;-67
2021/05/10 11:06:14;;;;;;;3.85;3.42;;;;;;;26.73;31.72;98114.84;5084449;28;20039;-67
2021/05/10 11:08:39;;;;;;;5.53;3.95;;;;;;;26.79;31.67;98112.44;5082678;28;20071;-67
2021/05/10 11:11:05;;;;;;;6.28;3.80;;;;;;;26.92;32.13;98113.97;5086025;28;20389;-68
2021/05/10 11:13:37;;;;;;;8.23;4.03;;;;;;;27.05;31.91;98111.84;5085371;28;20370;-68
2021/05/10 11:16:11;;;;;;;3.90;3.47;;;;;;;27.04;31.13;98113.63;5086725;28;20499;-67
2021/05/10 11:18:51;;;;;;;6.20;3.53;;;;;;;27.20;31.63;98110.41;5084165;28;20115;-68
2021/05/10 11:21:22;;;;;;;4.20;3.50;;;;;;;27.21;31.57;98120.75;5083597;28;20082;-67
2021/05/10 11:23:53;;;;;;;8.73;5.45;;;;;;;27.19;31.85;98109.56;5084153;28;20062;-68
2021/05/10 11:26:50;;;;;;;10.38;4.60;;;;;;;27.26;31.74;98115.06;5082305;28;20363;-67
2021/05/10 11:29:29;;;;;;;6.80;4.00;;;;;;;27.59;31.16;98119.75;5085275;28;20047;-67
2021/05/10 11:31:57;;;;;;;4.95;3.58;;;;;;;27.33;30.78;98108.22;5085844;28;20064;-67
2021/05/10 11:34:28;;;;;;;4.13;3.70;;;;;;;27.43;30.57;98101.13;5085957;28;20107;-67
2021/05/10 11:36:55;;;;;;;8.45;3.92;;;;;;;27.53;30.36;98094.03;5100019;28;20079;-68
2021/05/10 11:39:27;;;;;;;5.25;3.28;;;;;;;27.60;31.06;98104.78;5084806;28;20032;-67
2021/05/10 11:42:01;;;;;;;4.72;3.35;;;;;;;27.47;30.39;98099.88;5089719;28;20106;-67